Time;durP1;ratioP1;P1;durP2;ratioP2;P2;SDS_P1;SDS_P2;PMS_P1;PMS_P2;Temp;Humidity;BMP_temperature;BMP_pressure;BME280_temperature;BME280_humidity;BME280_pressure;Samples;Min_cycle;Max_cycle;Signal;HPM_P1;HPM_P2
2021/01/29 00:01:52;;;;;;;18.15;9.10;;;;;;;;;;4994294;28;20026;-74
2021/01/29 00:04:18;;;;;;;17.00;7.65;;;;;;;;;;4976841;28;20543;-74
2021/01/29 00:06:44;;;;;;;18.88;9.93;;;;;;;;;;4995684;28;20069;-73
2021/01/29 00:09:10;;;;;;;17.13;8.55;;;;;;;;;;4996542;28;20073;-73
2021/01/29 00:11:36;;;;;;;20.40;10.13;;;;;;;;;;4996171;28;20034;-73
2021/01/29 00:14:02;;;;;;;62.55;26.48;;;;;;;;;;4996403;28;20114;-74
2021/01/29 00:16:28;;;;;;;20.75;10.05;;;;;;;;;;4995998;28;20031;-74
2021/01/29 00:18:54;;;;;;;14.55;7.43;;;;;;;;;;4995947;28;20084;-72
2021/01/29 00:21:20;;;;;;;15.80;8.00;;;;;;;;;;4978513;28;20485;-73
2021/01/29 00:23:46;;;;;;;17.67;8.32;;;;;;;;;;4978744;28;20420;-72
2021/01/29 00:26:12;;;;;;;22.92;10.18;;;;;;;;;;4995597;28;20070;-73
2021/01/29 00:28:39;;;;;;;19.48;9.73;;;;;;;;;;5011266;28;20110;-72
2021/01/29 00:31:05;;;;;;;23.55;11.02;;;;;;;;;;4996059;28;20038;-73
2021/01/29 00:33:31;;;;;;;24.40;11.55;;;;;;;;;;4995693;28;20019;-72
2021/01/29 00:35:57;;;;;;;20.27;9.98;;;;;;;;;;5010962;28;20478;-73
2021/01/29 00:38:23;;;;;;;29.35;12.98;;;;;;;;;;4995614;28;20026;-71
2021/01/29 00:40:49;;;;;;;32.05;15.27;;;;;;;;;;4995311;28;20474;-72
2021/01/29 00:43:16;;;;;;;35.80;14.88;;;;;;;;;;4995554;28;20026;-72
2021/01/29 00:45:42;;;;;;;26.00;10.23;;;;;;;;;;5010578;28;20030;-73
2021/01/29 00:48:09;;;;;;;20.83;9.88;;;;;;;;;;4995730;28;20080;-73
2021/01/29 00:50:35;;;;;;;34.65;14.85;;;;;;;;;;4978296;28;20030;-73
2021/01/29 00:53:02;;;;;;;30.35;13.90;;;;;;;;;;4995330;28;20509;-73
2021/01/29 00:55:28;;;;;;;28.75;12.38;;;;;;;;;;4995172;28;20034;-73
2021/01/29 00:57:54;;;;;;;21.33;9.55;;;;;;;;;;4995547;28;20037;-73
2021/01/29 01:00:20;;;;;;;18.75;8.68;;;;;;;;;;4978008;28;20049;-72
2021/01/29 01:02:47;;;;;;;27.17;11.20;;;;;;;;;;4995479;28;20146;-71
2021/01/29 01:05:14;;;;;;;16.17;7.30;;;;;;;;;;4995160;28;20181;-72
2021/01/29 01:07:40;;;;;;;15.52;6.80;;;;;;;;;;4995348;28;20035;-74
2021/01/29 01:10:06;;;;;;;20.63;8.95;;;;;;;;;;4977908;28;20018;-73
2021/01/29 01:12:32;;;;;;;14.98;6.13;;;;;;;;;;4994358;28;20029;-73
2021/01/29 01:14:59;;;;;;;20.02;8.68;;;;;;;;;;4994876;28;20026;-72
2021/01/29 01:17:25;;;;;;;11.55;5.03;;;;;;;;;;4994887;28;20034;-74
2021/01/29 01:19:51;;;;;;;12.60;5.72;;;;;;;;;;4977728;28;20370;-72
2021/01/29 01:22:17;;;;;;;9.70;4.90;;;;;;;;;;4994941;28;20121;-72
2021/01/29 01:24:43;;;;;;;9.63;4.43;;;;;;;;;;4995065;28;20034;-72
2021/01/29 01:27:14;;;;;;;7.45;3.53;;;;;;;;;;4977565;28;20026;-72
2021/01/29 01:29:40;;;;;;;9.48;4.78;;;;;;;;;;4994700;28;20023;-71
2021/01/29 01:32:06;;;;;;;10.50;5.47;;;;;;;;;;4994644;28;20058;-74
2021/01/29 01:34:32;;;;;;;11.57;6.35;;;;;;;;;;4994635;28;20069;-71
2021/01/29 01:36:58;;;;;;;12.60;5.90;;;;;;;;;;4977350;28;20561;-71
2021/01/29 01:39:25;;;;;;;12.77;5.70;;;;;;;;;;4994845;28;20037;-71
2021/01/29 01:41:51;;;;;;;10.77;5.40;;;;;;;;;;4994319;28;20053;-72
2021/01/29 01:44:34;;;;;;;12.25;5.10;;;;;;;;;;4995044;28;20493;-74
2021/01/29 01:47:03;;;;;;;13.52;6.30;;;;;;;;;;4994795;28;20038;-71
2021/01/29 01:49:29;;;;;;;13.32;5.65;;;;;;;;;;4976894;28;20122;-73
2021/01/29 01:52:02;;;;;;;13.82;6.22;;;;;;;;;;4994704;28;20030;-72
2021/01/29 01:54:40;;;;;;;15.32;6.07;;;;;;;;;;4994358;28;20062;-72
2021/01/29 01:57:07;;;;;;;11.43;4.97;;;;;;;;;;4994240;28;20117;-72
2021/01/29 01:59:41;;;;;;;39.78;15.30;;;;;;;;;;4994286;28;20080;-72
2021/01/29 02:02:09;;;;;;;10.60;5.20;;;;;;;;;;5009632;28;20023;-72
2021/01/29 02:04:37;;;;;;;9.40;5.03;;;;;;;;;;4976700;28;20031;-72
2021/01/29 02:07:22;;;;;;;7.85;3.58;;;;;;;;;;4994141;28;20393;-72
2021/01/29 02:09:49;;;;;;;8.57;3.60;;;;;;;;;;4976657;28;20431;-73
2021/01/29 02:12:15;;;;;;;5.57;2.75;;;;;;;;;;4977048;28;20022;-72
2021/01/29 02:14:41;;;;;;;24.42;10.30;;;;;;;;;;4994370;28;20022;-71
2021/01/29 02:17:12;;;;;;;5.53;3.30;;;;;;;;;;4994000;28;20074;-71
2021/01/29 02:19:38;;;;;;;5.85;3.17;;;;;;;;;;4994367;28;20069;-72
2021/01/29 02:22:13;;;;;;;8.40;4.25;;;;;;;;;;4994433;28;20050;-71
2021/01/29 02:24:57;;;;;;;5.00;3.00;;;;;;;;;;4979817;28;20022;-71
2021/01/29 02:27:29;;;;;;;24.33;9.73;;;;;;;;;;4998325;28;20030;-71
2021/01/29 02:29:56;;;;;;;;;;;;;;;;;;4998813;28;20153;-71
2021/01/29 02:32:31;;;;;;;7.60;3.72;;;;;;;;;;4997949;28;19960;-73
2021/01/29 02:35:03;;;;;;;7.38;3.75;;;;;;;;;;4980871;28;20420;-72
2021/01/29 02:38:02;;;;;;;8.80;4.00;;;;;;;;;;4997605;28;20074;-72
2021/01/29 02:40:28;;;;;;;12.70;5.60;;;;;;;;;;4956975;29;20058;-73
2021/01/29 02:43:00;;;;;;;16.02;6.50;;;;;;;;;;4940876;29;20470;-71
2021/01/29 02:45:26;;;;;;;9.55;5.30;;;;;;;;;;4956674;29;20422;-72
2021/01/29 02:47:58;;;;;;;17.85;6.93;;;;;;;;;;4957044;29;20144;-72
2021/01/29 02:50:42;;;;;;;20.45;8.65;;;;;;;;;;4956874;29;20039;-71
2021/01/29 02:53:47;;;;;;;13.40;5.18;;;;;;;;;;4956602;29;20533;-72
2021/01/29 02:56:19;;;;;;;8.60;3.33;;;;;;;;;;4883968;29;20084;-72
2021/01/29 02:58:45;;;;;;;13.00;4.57;;;;;;;;;;4899406;29;20056;-72
2021/01/29 03:01:14;;;;;;;25.70;8.70;;;;;;;;;;4899645;29;20033;-72
2021/01/29 03:03:54;;;;;;;17.85;5.70;;;;;;;;;;4899627;29;20037;-72
2021/01/29 03:06:20;;;;;;;12.48;4.75;;;;;;;;;;4899524;29;20072;-71
2021/01/29 03:08:54;;;;;;;14.80;5.05;;;;;;;;;;4899716;29;20049;-72
2021/01/29 03:11:31;;;;;;;7.32;3.40;;;;;;;;;;4899487;29;20500;-71
2021/01/29 03:14:09;;;;;;;16.45;5.65;;;;;;;;;;4883383;29;20037;-72
2021/01/29 03:16:39;;;;;;;10.32;4.15;;;;;;;;;;4926930;29;20107;-72
2021/01/29 03:19:12;;;;;;;7.43;3.00;;;;;;;;;;4937304;29;20039;-72
2021/01/29 03:21:40;;;;;;;5.05;2.67;;;;;;;;;;4936725;29;20056;-71
2021/01/29 03:24:09;;;;;;;8.13;3.70;;;;;;;;;;4937238;29;20039;-72
2021/01/29 03:26:37;;;;;;;15.18;5.88;;;;;;;;;;4931896;29;20035;-72
2021/01/29 03:29:07;;;;;;;18.23;6.85;;;;;;;;;;4958297;29;20472;-72
2021/01/29 03:31:34;;;;;;;21.67;7.88;;;;;;;;;;4958188;29;20131;-71
2021/01/29 03:34:09;;;;;;;21.42;7.38;;;;;;;;;;4958047;28;20102;-71
2021/01/29 03:36:38;;;;;;;21.88;7.10;;;;;;;;;;4957532;29;20034;-72
2021/01/29 03:39:10;;;;;;;14.43;5.55;;;;;;;;;;4957030;29;20175;-71
2021/01/29 03:41:39;;;;;;;39.70;11.75;;;;;;;;;;4957987;29;20068;-71
2021/01/29 03:44:11;;;;;;;13.00;5.68;;;;;;;;;;4958504;29;20030;-72
2021/01/29 03:46:37;;;;;;;18.35;7.53;;;;;;;;;;4957908;29;20027;-72
2021/01/29 03:49:09;;;;;;;21.83;8.02;;;;;;;;;;4957880;29;20119;-72
2021/01/29 03:51:54;;;;;;;11.35;4.53;;;;;;;;;;4958097;29;20024;-71
2021/01/29 03:54:24;;;;;;;14.63;6.35;;;;;;;;;;4958081;29;20031;-72
2021/01/29 03:57:13;;;;;;;15.98;6.10;;;;;;;;;;4957769;29;20030;-71
2021/01/29 03:59:51;;;;;;;13.35;5.60;;;;;;;;;;4947837;28;20399;-71
2021/01/29 04:02:30;;;;;;;10.82;4.28;;;;;;;;;;4957571;29;20081;-72
2021/01/29 04:05:06;;;;;;;9.13;3.22;;;;;;;;;;4957815;29;20466;-72
2021/01/29 04:07:32;;;;;;;9.15;4.28;;;;;;;;;;4957942;29;20023;-72
2021/01/29 04:10:04;;;;;;;8.48;3.70;;;;;;;;;;4957170;29;20367;-72
2021/01/29 04:12:37;;;;;;;7.77;4.07;;;;;;;;;;4957982;29;20023;-72
2021/01/29 04:15:09;;;;;;;8.32;4.60;;;;;;;;;;4957641;29;20033;-72
2021/01/29 04:17:38;;;;;;;9.13;4.78;;;;;;;;;;4957131;29;20031;-72
2021/01/29 04:20:12;;;;;;;9.80;4.63;;;;;;;;;;4957330;29;20101;-72
2021/01/29 04:22:39;;;;;;;10.00;4.90;;;;;;;;;;4971336;28;20397;-72
2021/01/29 04:25:23;;;;;;;10.00;4.40;;;;;;;;;;4976559;28;20027;-72
2021/01/29 04:27:51;;;;;;;9.90;4.30;;;;;;;;;;4976716;28;20015;-71
2021/01/29 04:30:26;;;;;;;8.98;4.60;;;;;;;;;;4976369;28;20025;-71
2021/01/29 04:33:02;;;;;;;8.38;4.05;;;;;;;;;;4976853;28;20070;-71
2021/01/29 04:35:30;;;;;;;10.50;4.22;;;;;;;;;;4976493;28;20030;-72
2021/01/29 04:38:00;;;;;;;11.55;5.50;;;;;;;;;;4976596;28;20042;-71
2021/01/29 04:40:30;;;;;;;11.05;5.10;;;;;;;;;;4976765;28;20023;-72
2021/01/29 04:43:15;;;;;;;9.38;4.20;;;;;;;;;;4976492;28;20019;-71
2021/01/29 04:45:48;;;;;;;10.55;4.85;;;;;;;;;;4975965;28;20062;-72
2021/01/29 04:48:14;;;;;;;9.90;4.50;;;;;;;;;;4975218;28;20019;-71
2021/01/29 04:50:59;;;;;;;9.27;4.40;;;;;;;;;;4975974;28;20034;-72
2021/01/29 04:53:38;;;;;;;10.20;4.72;;;;;;;;;;4976536;28;20027;-72
2021/01/29 04:56:04;;;;;;;12.32;5.43;;;;;;;;;;4976180;28;20026;-72
2021/01/29 04:58:33;;;;;;;10.63;4.80;;;;;;;;;;4975907;28;20086;-72
2021/01/29 05:01:00;;;;;;;10.98;5.28;;;;;;;;;;4976130;28;20109;-71
2021/01/29 05:03:44;;;;;;;12.25;5.00;;;;;;;;;;4975793;28;20027;-72
2021/01/29 05:06:19;;;;;;;11.25;5.15;;;;;;;;;;4976004;28;20063;-71
2021/01/29 05:09:04;;;;;;;11.30;5.85;;;;;;;;;;4975993;28;20059;-71
2021/01/29 05:11:41;;;;;;;10.40;5.65;;;;;;;;;;4975630;28;20030;-71
2021/01/29 05:14:08;;;;;;;14.20;7.30;;;;;;;;;;4975985;28;20038;-72
2021/01/29 05:16:53;;;;;;;23.20;12.35;;;;;;;;;;4975486;28;20113;-72
2021/01/29 05:19:41;;;;;;;30.60;17.95;;;;;;;;;;4974329;28;20034;-72
2021/01/29 05:22:10;;;;;;;28.45;17.23;;;;;;;;;;4974182;28;20051;-70
2021/01/29 05:24:39;;;;;;;23.95;13.25;;;;;;;;;;4974489;28;20371;-71
2021/01/29 05:27:14;;;;;;;24.80;13.70;;;;;;;;;;4975577;28;20030;-70
2021/01/29 05:29:56;;;;;;;31.58;17.60;;;;;;;;;;4975611;28;20022;-71
2021/01/29 05:32:22;;;;;;;23.70;14.48;;;;;;;;;;4975712;28;20106;-71
2021/01/29 05:35:15;;;;;;;23.75;14.13;;;;;;;;;;4975131;28;20023;-72
2021/01/29 05:37:41;;;;;;;18.60;10.52;;;;;;;;;;4951863;28;20503;-71
2021/01/29 05:40:34;;;;;;;15.30;8.02;;;;;;;;;;4974905;28;20095;-71
2021/01/29 05:43:00;;;;;;;;;;;;;;;;;;4975918;28;20122;-71
2021/01/29 05:45:26;;;;;;;10.23;5.78;;;;;;;;;;4975068;28;20348;-72
2021/01/29 05:47:56;;;;;;;11.13;5.43;;;;;;;;;;4973730;28;20466;-72
2021/01/29 05:50:34;;;;;;;7.45;4.70;;;;;;;;;;4973922;28;20038;-71
2021/01/29 05:53:19;;;;;;;14.25;7.00;;;;;;;;;;4975043;28;20030;-71
2021/01/29 05:55:56;;;;;;;8.65;4.85;;;;;;;;;;4974520;28;20054;-71
2021/01/29 05:58:41;;;;;;;9.50;4.63;;;;;;;;;;4974652;28;20031;-71
2021/01/29 06:01:30;;;;;;;7.90;4.15;;;;;;;;;;4974701;28;20118;-71
2021/01/29 06:03:56;;;;;;;7.20;4.13;;;;;;;;;;4947447;28;20039;-71
2021/01/29 06:06:34;;;;;;;10.02;4.65;;;;;;;;;;4974987;28;20027;-71
2021/01/29 06:09:19;;;;;;;8.93;5.03;;;;;;;;;;4974470;28;20493;-72
2021/01/29 06:12:03;;;;;;;8.40;5.03;;;;;;;;;;4975257;28;20403;-72
2021/01/29 06:14:36;;;;;;;9.98;5.18;;;;;;;;;;4973427;28;20114;-72
2021/01/29 06:17:02;;;;;;;8.38;5.07;;;;;;;;;;4974597;28;20430;-72
2021/01/29 06:19:29;;;;;;;10.75;4.90;;;;;;;;;;4975187;28;20026;-72
2021/01/29 06:22:13;;;;;;;10.68;6.18;;;;;;;;;;4973063;28;20055;-73
2021/01/29 06:24:48;;;;;;;7.97;5.00;;;;;;;;;;4974732;28;20030;-72
2021/01/29 06:27:23;;;;;;;9.95;5.20;;;;;;;;;;4974642;28;20062;-72
2021/01/29 06:29:59;;;;;;;10.65;6.28;;;;;;;;;;4974497;28;20027;-71
2021/01/29 06:32:34;;;;;;;9.88;4.82;;;;;;;;;;4974789;28;20058;-71
2021/01/29 06:35:15;;;;;;;9.43;4.88;;;;;;;;;;4974733;28;20058;-72
2021/01/29 06:38:00;;;;;;;9.00;5.10;;;;;;;;;;4973277;28;20027;-72
2021/01/29 06:40:32;;;;;;;8.40;5.20;;;;;;;;;;4973350;28;20037;-72
2021/01/29 06:42:58;;;;;;;;;;;;;;;;;;4974851;28;20023;-71
2021/01/29 06:45:30;;;;;;;8.55;4.93;;;;;;;;;;4973363;28;19960;-72
2021/01/29 06:47:59;;;;;;;8.43;4.97;;;;;;;;;;4974344;28;20022;-72
2021/01/29 06:50:25;;;;;;;8.70;4.80;;;;;;;;;;4973927;28;20062;-73
2021/01/29 06:53:10;;;;;;;10.32;5.00;;;;;;;;;;4974232;28;20019;-71
2021/01/29 06:55:54;;;;;;;9.32;4.78;;;;;;;;;;4974108;28;20390;-72
2021/01/29 06:58:39;;;;;;;10.27;5.70;;;;;;;;;;4974036;28;20075;-71
2021/01/29 07:01:08;;;;;;;8.20;4.60;;;;;;;;;;4973152;28;20375;-70
2021/01/29 07:03:53;;;;;;;10.13;5.38;;;;;;;;;;4972312;28;20030;-73
2021/01/29 07:06:25;;;;;;;9.55;4.90;;;;;;;;;;4970712;28;20042;-72
2021/01/29 07:08:51;;;;;;;10.57;4.85;;;;;;;;;;4973219;28;20023;-72
2021/01/29 07:11:17;;;;;;;10.10;4.78;;;;;;;;;;4974876;28;20037;-69
2021/01/29 07:13:52;;;;;;;8.95;4.72;;;;;;;;;;4976694;28;20022;-68
2021/01/29 07:16:27;;;;;;;10.75;5.00;;;;;;;;;;4974497;28;20030;-68
2021/01/29 07:18:57;;;;;;;9.20;4.90;;;;;;;;;;4976041;28;20041;-68
2021/01/29 07:21:23;;;;;;;9.93;5.80;;;;;;;;;;4982021;28;20054;-70
2021/01/29 07:23:49;;;;;;;9.20;5.40;;;;;;;;;;4996046;28;20023;-70
2021/01/29 07:26:37;;;;;;;10.68;5.70;;;;;;;;;;4993059;28;20026;-69
2021/01/29 07:29:06;;;;;;;8.02;4.97;;;;;;;;;;4976966;28;20394;-69
2021/01/29 07:31:38;;;;;;;8.98;4.97;;;;;;;;;;4995369;28;20462;-69
2021/01/29 07:34:26;;;;;;;7.78;4.60;;;;;;;;;;4995337;28;20042;-69
2021/01/29 07:37:11;;;;;;;6.97;4.18;;;;;;;;;;4995265;28;20096;-70
2021/01/29 07:39:37;;;;;;;7.40;4.22;;;;;;;;;;4992961;28;20029;-69
2021/01/29 07:42:03;;;;;;;7.85;4.55;;;;;;;;;;4995273;28;20022;-70
2021/01/29 07:44:32;;;;;;;9.88;5.47;;;;;;;;;;4996602;28;20031;-69
2021/01/29 07:47:04;;;;;;;5.63;3.55;;;;;;;;;;4996291;28;20470;-69
2021/01/29 07:49:36;;;;;;;11.10;3.78;;;;;;;;;;4996594;28;20061;-71
2021/01/29 07:52:21;;;;;;;5.97;3.13;;;;;;;;;;4995681;28;20030;-71
2021/01/29 07:55:07;;;;;;;8.27;4.20;;;;;;;;;;4995661;28;20026;-70
2021/01/29 07:57:59;;;;;;;9.30;4.82;;;;;;;;;;4966478;28;20054;-70
2021/01/29 08:00:26;;;;;;;8.02;4.47;;;;;;;;;;4996095;28;20040;-70
2021/01/29 08:03:07;;;;;;;7.05;3.70;;;;;;;;;;4995728;28;20027;-70
2021/01/29 08:05:37;;;;;;;7.55;4.35;;;;;;;;;;4993216;28;20037;-70
2021/01/29 08:08:23;;;;;;;7.15;4.13;;;;;;;;;;4995988;28;20073;-80
2021/01/29 08:10:51;;;;;;;7.88;4.28;;;;;;;;;;4996308;28;20026;-78
2021/01/29 08:13:23;;;;;;;9.02;4.70;;;;;;;;;;4978983;28;20118;-77
2021/01/29 08:16:01;;;;;;;8.23;4.40;;;;;;;;;;4999320;28;20030;-78
2021/01/29 08:18:33;;;;;;;8.18;4.35;;;;;;;;;;4980043;28;20034;-76
2021/01/29 08:21:15;;;;;;;7.38;3.85;;;;;;;;;;4978836;28;20073;-77
2021/01/29 08:24:00;;;;;;;9.00;5.18;;;;;;;;;;4996399;28;20050;-74
2021/01/29 08:26:46;;;;;;;10.02;5.65;;;;;;;;;;4978216;28;20044;-76
2021/01/29 08:29:21;;;;;;;12.50;5.50;;;;;;;;;;4970968;28;20187;-75
2021/01/29 08:32:06;;;;;;;9.95;6.18;;;;;;;;;;4991823;28;20018;-74
2021/01/29 08:34:38;;;;;;;10.40;6.13;;;;;;;;;;4978249;28;20033;-75
2021/01/29 08:37:04;;;;;;;;;;;;;;;;;;4996069;28;20449;-78
2021/01/29 08:39:32;;;;;;;11.02;5.32;;;;;;;;;;4995853;28;19949;-75
2021/01/29 08:42:01;;;;;;;10.07;5.70;;;;;;;;;;4977751;28;20492;-77
2021/01/29 08:44:46;;;;;;;10.48;5.43;;;;;;;;;;4978515;28;20029;-78
2021/01/29 08:47:22;;;;;;;10.90;5.30;;;;;;;;;;4977577;28;20386;-78
2021/01/29 08:49:48;;;;;;;14.25;6.03;;;;;;;;;;4995718;28;20415;-70
2021/01/29 08:52:14;;;;;;;11.57;5.47;;;;;;;;;;4993395;28;20371;-69
2021/01/29 08:54:49;;;;;;;10.25;5.47;;;;;;;;;;4993824;28;20433;-69
2021/01/29 08:57:32;;;;;;;13.25;6.55;;;;;;;;;;4994514;28;20029;-69
2021/01/29 08:59:58;;;;;;;;;;;;;;;;;;4994221;28;20031;-69
2021/01/29 09:02:43;;;;;;;10.70;6.50;;;;;;;;;;4993518;28;19960;-68
2021/01/29 09:05:18;;;;;;;12.10;6.45;;;;;;;;;;4994291;28;20050;-69
2021/01/29 09:07:45;;;;;;;14.23;5.80;;;;;;;;;;4994687;28;20497;-68
2021/01/29 09:10:35;;;;;;;11.25;5.88;;;;;;;;;;4993779;28;20029;-69
2021/01/29 09:13:02;;;;;;;12.88;6.25;;;;;;;;;;4967578;28;20066;-70
2021/01/29 09:15:42;;;;;;;14.90;6.93;;;;;;;;;;4994405;28;20030;-68
2021/01/29 09:18:30;;;;;;;14.57;7.18;;;;;;;;;;4994864;28;20034;-70
2021/01/29 09:21:02;;;;;;;13.82;7.03;;;;;;;;;;4977531;28;20022;-71
2021/01/29 09:23:30;;;;;;;14.40;7.63;;;;;;;;;;4994565;28;20032;-71
2021/01/29 09:26:01;;;;;;;15.70;7.88;;;;;;;;;;4994852;28;20030;-70
2021/01/29 09:28:29;;;;;;;13.63;7.38;;;;;;;;;;4995059;28;20022;-69
2021/01/29 09:30:57;;;;;;;14.98;8.05;;;;;;;;;;4994559;28;20030;-70
2021/01/29 09:33:23;;;;;;;14.35;7.25;;;;;;;;;;4993703;28;20045;-68
2021/01/29 09:35:55;;;;;;;13.88;7.20;;;;;;;;;;4994830;28;20477;-67
2021/01/29 09:38:23;;;;;;;17.38;8.02;;;;;;;;;;4994350;28;20526;-69
2021/01/29 09:41:10;;;;;;;16.00;7.60;;;;;;;;;;4993790;28;20435;-68
2021/01/29 09:43:40;;;;;;;12.95;6.57;;;;;;;;;;4980987;28;20097;-70
2021/01/29 09:46:07;;;;;;;15.05;7.50;;;;;;;;;;4994627;28;20064;-68
2021/01/29 09:48:36;;;;;;;14.60;7.55;;;;;;;;;;4994584;28;20166;-66
2021/01/29 09:51:23;;;;;;;15.52;6.55;;;;;;;;;;4993719;28;20022;-68
2021/01/29 09:53:56;;;;;;;12.60;6.88;;;;;;;;;;4993953;28;20065;-67
2021/01/29 09:56:24;;;;;;;13.98;7.00;;;;;;;;;;4994214;28;20030;-67
2021/01/29 09:59:09;;;;;;;13.52;7.03;;;;;;;;;;4992735;28;20030;-68
2021/01/29 10:01:36;;;;;;;13.63;6.25;;;;;;;;;;4994292;28;20032;-67
2021/01/29 10:04:06;;;;;;;13.90;7.03;;;;;;;;;;4994007;28;20031;-68
2021/01/29 10:06:33;;;;;;;11.23;6.45;;;;;;;;;;4993836;28;20182;-67
2021/01/29 10:09:03;;;;;;;12.40;6.35;;;;;;;;;;4993917;28;20026;-66
2021/01/29 10:11:39;;;;;;;16.40;6.60;;;;;;;;;;4993443;28;20049;-66
2021/01/29 10:14:14;;;;;;;12.57;6.00;;;;;;;;;;4991881;28;20022;-66
2021/01/29 10:16:53;;;;;;;11.15;6.10;;;;;;;;;;4989589;28;20473;-66
2021/01/29 10:19:19;;;;;;;11.00;5.60;;;;;;;;;;4994077;28;20065;-67
2021/01/29 10:21:57;;;;;;;13.65;6.88;;;;;;;;;;4993181;28;20047;-66
2021/01/29 10:24:42;;;;;;;14.10;7.22;;;;;;;;;;4993142;28;20062;-67
2021/01/29 10:27:14;;;;;;;15.00;7.55;;;;;;;;;;4993533;28;20034;-66
2021/01/29 10:29:42;;;;;;;15.95;7.45;;;;;;;;;;4993468;28;20050;-67
2021/01/29 10:32:08;;;;;;;15.38;7.78;;;;;;;;;;4993299;28;20524;-68
2021/01/29 10:34:41;;;;;;;16.40;6.97;;;;;;;;;;4993443;28;20513;-66
2021/01/29 10:37:11;;;;;;;12.60;6.25;;;;;;;;;;4993946;28;20018;-67
2021/01/29 10:39:52;;;;;;;18.08;9.52;;;;;;;;;;4992861;28;20033;-68
2021/01/29 10:42:24;;;;;;;13.10;6.93;;;;;;;;;;4993134;28;20472;-68
2021/01/29 10:44:52;;;;;;;14.40;7.38;;;;;;;;;;4995611;28;20080;-67
2021/01/29 10:47:23;;;;;;;15.88;8.30;;;;;;;;;;4995448;28;20088;-67
2021/01/29 10:50:05;;;;;;;16.90;8.75;;;;;;;;;;4997496;28;20023;-74
2021/01/29 10:52:40;;;;;;;19.15;9.25;;;;;;;;;;4975836;28;20022;-75
2021/01/29 10:55:12;;;;;;;20.30;9.65;;;;;;;;;;4979978;28;20026;-75
2021/01/29 10:57:38;;;;;;;;;;;;;;;;;;4980717;28;20034;-75
2021/01/29 11:00:04;;;;;;;18.88;9.45;;;;;;;;;;5011875;28;19914;-76
2021/01/29 11:02:41;;;;;;;20.70;10.75;;;;;;;;;;4979813;28;20022;-75
2021/01/29 11:05:09;;;;;;;18.77;8.98;;;;;;;;;;4979849;28;20038;-75
2021/01/29 11:07:38;;;;;;;18.23;8.90;;;;;;;;;;4996942;28;20026;-73
2021/01/29 11:10:04;;;;;;;18.20;8.98;;;;;;;;;;4996574;28;20120;-75
2021/01/29 11:12:33;;;;;;;17.25;8.70;;;;;;;;;;4979567;28;20038;-73
2021/01/29 11:15:10;;;;;;;14.95;8.80;;;;;;;;;;4978752;28;20084;-73
2021/01/29 11:17:40;;;;;;;21.08;8.65;;;;;;;;;;4979412;28;20031;-76
2021/01/29 11:20:44;;;;;;;16.02;7.53;;;;;;;;;;4979442;28;20027;-74
2021/01/29 11:23:29;;;;;;;15.55;7.38;;;;;;;;;;4933188;29;20035;-73
2021/01/29 11:26:01;;;;;;;18.38;7.75;;;;;;;;;;4935848;29;20052;-75
2021/01/29 11:28:46;;;;;;;28.00;12.73;;;;;;;;;;4920536;29;20035;-76
2021/01/29 11:31:16;;;;;;;19.30;9.25;;;;;;;;;;4920042;29;20036;-75
2021/01/29 11:33:44;;;;;;;13.57;6.75;;;;;;;;;;4935422;29;20047;-76
2021/01/29 11:36:19;;;;;;;11.43;6.10;;;;;;;;;;4920855;29;20032;-76
2021/01/29 11:38:58;;;;;;;12.45;5.82;;;;;;;;;;4921048;29;20051;-74
2021/01/29 11:41:33;;;;;;;15.77;6.60;;;;;;;;;;4920739;29;20051;-76
2021/01/29 11:44:08;;;;;;;9.52;4.38;;;;;;;;;;4920759;29;20067;-75
2021/01/29 11:46:37;;;;;;;9.95;4.63;;;;;;;;;;4920677;29;20044;-74
2021/01/29 11:49:03;;;;;;;12.15;5.47;;;;;;;;;;4920460;29;20020;-77
2021/01/29 11:51:34;;;;;;;14.60;7.82;;;;;;;;;;4920349;29;20035;-77
2021/01/29 11:54:03;;;;;;;15.93;5.57;;;;;;;;;;4969342;28;20038;-77
2021/01/29 11:56:29;;;;;;;12.07;5.28;;;;;;;;;;4995378;28;20086;-76
2021/01/29 11:59:00;;;;;;;14.52;5.25;;;;;;;;;;5011564;28;20116;-77
2021/01/29 12:01:26;;;;;;;16.60;5.07;;;;;;;;;;5011675;28;20023;-75
2021/01/29 12:04:11;;;;;;;15.43;5.60;;;;;;;;;;5011419;28;20026;-77
2021/01/29 12:06:42;;;;;;;10.18;4.63;;;;;;;;;;5011279;28;20040;-75
2021/01/29 12:09:23;;;;;;;11.93;4.53;;;;;;;;;;5011403;28;20070;-76
2021/01/29 12:12:00;;;;;;;10.50;3.90;;;;;;;;;;5010037;28;20026;-75
2021/01/29 12:14:29;;;;;;;13.73;5.22;;;;;;;;;;4995175;28;20425;-77
2021/01/29 12:16:58;;;;;;;10.45;4.80;;;;;;;;;;4995002;28;20398;-77
2021/01/29 12:19:27;;;;;;;11.77;5.18;;;;;;;;;;4994757;28;20026;-78
2021/01/29 12:22:06;;;;;;;13.32;5.70;;;;;;;;;;4995996;28;20469;-76
2021/01/29 12:24:32;;;;;;;12.70;4.70;;;;;;;;;;4995023;28;20030;-77
2021/01/29 12:27:07;;;;;;;11.55;4.97;;;;;;;;;;4994778;28;20045;-75
2021/01/29 12:29:37;;;;;;;18.80;6.55;;;;;;;;;;4994821;28;20029;-77
2021/01/29 12:32:21;;;;;;;13.43;5.03;;;;;;;;;;4994584;28;20028;-78
2021/01/29 12:34:50;;;;;;;10.40;5.47;;;;;;;;;;4991185;28;20027;-78
2021/01/29 12:37:19;;;;;;;12.18;6.03;;;;;;;;;;4978061;28;20026;-79
2021/01/29 12:39:48;;;;;;;12.70;5.75;;;;;;;;;;4995047;28;20033;-76
2021/01/29 12:42:14;;;;;;;13.85;5.18;;;;;;;;;;4978042;28;20030;-78
2021/01/29 12:44:55;;;;;;;9.13;4.38;;;;;;;;;;4995316;28;20018;-79
2021/01/29 12:47:33;;;;;;;10.57;3.92;;;;;;;;;;4977866;28;20105;-77
2021/01/29 12:50:18;;;;;;;10.77;4.30;;;;;;;;;;4994788;28;20036;-79
2021/01/29 12:52:49;;;;;;;10.85;4.32;;;;;;;;;;4977986;28;20026;-77
2021/01/29 12:55:19;;;;;;;10.27;4.60;;;;;;;;;;4994808;28;20368;-74
2021/01/29 12:57:57;;;;;;;10.55;4.22;;;;;;;;;;4977219;28;20035;-75
2021/01/29 13:00:32;;;;;;;8.43;3.67;;;;;;;;;;4977776;28;20019;-77
2021/01/29 13:03:01;;;;;;;9.00;4.00;;;;;;;;;;4978118;28;20030;-76
2021/01/29 13:05:46;;;;;;;16.92;3.83;;;;;;;;;;4974046;28;20551;-79
2021/01/29 13:08:26;;;;;;;9.90;4.50;;;;;;;;;;4977372;28;20018;-75
2021/01/29 13:11:19;;;;;;;12.15;4.30;;;;;;;;;;4977805;28;20026;-78
2021/01/29 13:13:45;;;;;;;;;;;;;;;;;;4977572;28;20030;-77
2021/01/29 13:16:31;;;;;;;11.13;4.50;;;;;;;;;;5009394;28;20280;-73
2021/01/29 13:19:03;;;;;;;11.73;4.28;;;;;;;;;;4957715;28;20037;-77
2021/01/29 13:21:40;;;;;;;9.30;3.95;;;;;;;;;;4976358;28;20445;-77
2021/01/29 13:24:18;;;;;;;12.20;4.57;;;;;;;;;;4977586;28;20026;-77
2021/01/29 13:26:45;;;;;;;11.13;4.60;;;;;;;;;;4977513;28;20094;-75
2021/01/29 13:29:14;;;;;;;14.43;4.85;;;;;;;;;;4976548;28;20031;-77
2021/01/29 13:31:41;;;;;;;11.73;4.80;;;;;;;;;;4994376;28;20022;-79
2021/01/29 13:34:13;;;;;;;13.30;5.50;;;;;;;;;;4977432;28;20028;-78
2021/01/29 13:36:39;;;;;;;15.40;4.90;;;;;;;;;;4977077;28;20034;-75
2021/01/29 13:39:11;;;;;;;25.80;10.60;;;;;;;;;;4988485;28;20039;-78
2021/01/29 13:41:53;;;;;;;21.23;6.97;;;;;;;;;;4993554;28;20466;-75
2021/01/29 13:44:32;;;;;;;16.33;5.82;;;;;;;;;;4992533;28;20121;-78
2021/01/29 13:46:58;;;;;;;15.50;5.40;;;;;;;;;;4994069;28;20381;-71
2021/01/29 13:49:41;;;;;;;36.00;17.10;;;;;;;;;;4980232;28;20026;-75
2021/01/29 13:52:22;;;;;;;32.58;15.13;;;;;;;;;;5014788;28;20034;-83
2021/01/29 13:54:48;;;;;;;25.02;11.73;;;;;;;;;;5011587;28;20133;-81
2021/01/29 13:57:20;;;;;;;14.73;6.75;;;;;;;;;;5009374;28;20037;-80
2021/01/29 13:59:48;;;;;;;34.75;12.95;;;;;;;;;;4977386;28;20073;-82
2021/01/29 14:02:27;;;;;;;25.27;9.63;;;;;;;;;;5009041;28;20030;-79
2021/01/29 14:05:11;;;;;;;28.63;10.68;;;;;;;;;;4993348;28;20090;-79
2021/01/29 14:07:38;;;;;;;21.20;8.95;;;;;;;;;;4992847;28;20030;-75
2021/01/29 14:10:05;;;;;;;19.98;8.60;;;;;;;;;;4984015;28;20386;-74
2021/01/29 14:12:45;;;;;;;17.80;7.38;;;;;;;;;;4981260;28;20493;-80
2021/01/29 14:15:40;;;;;;;23.85;9.82;;;;;;;;;;4979816;28;20065;-77
2021/01/29 14:18:28;;;;;;;20.77;8.30;;;;;;;;;;4965891;28;20065;-74
2021/01/29 14:21:13;;;;;;;23.38;8.95;;;;;;;;;;4956577;28;20051;-75
2021/01/29 14:23:51;;;;;;;23.27;10.15;;;;;;;;;;4956835;28;20086;-71
2021/01/29 14:26:41;;;;;;;40.13;16.58;;;;;;;;;;4989122;28;20037;-74
2021/01/29 14:29:07;;;;;;;26.25;10.50;;;;;;;;;;4968848;28;20060;-72
2021/01/29 14:31:33;;;;;;;22.15;10.30;;;;;;;;;;4974267;28;20019;-73
2021/01/29 14:34:08;;;;;;;22.58;10.48;;;;;;;;;;4989538;28;20058;-78
2021/01/29 14:37:02;;;;;;;24.20;10.43;;;;;;;;;;4990566;28;20085;-74
2021/01/29 14:39:44;;;;;;;25.13;12.25;;;;;;;;;;5007787;28;20022;-79
2021/01/29 14:42:10;;;;;;;;;;;;;;;;;;5008241;28;20025;-78
2021/01/29 14:44:55;;;;;;;30.73;14.65;;;;;;;;;;4993395;28;19918;-80
2021/01/29 14:47:42;;;;;;;30.45;14.55;;;;;;;;;;5007935;28;20050;-76
2021/01/29 14:50:08;;;;;;;30.52;15.32;;;;;;;;;;4976128;28;20056;-76
2021/01/29 14:52:46;;;;;;;34.33;17.23;;;;;;;;;;5008233;28;20493;-75
2021/01/29 14:55:14;;;;;;;41.72;22.95;;;;;;;;;;5008808;28;20109;-77
2021/01/29 14:57:41;;;;;;;37.88;19.38;;;;;;;;;;4992527;28;20184;-77
2021/01/29 15:00:15;;;;;;;59.10;29.50;;;;;;;;;;4977968;28;20026;-71
2021/01/29 15:03:02;;;;;;;70.50;35.78;;;;;;;;;;5017179;28;20030;-77
2021/01/29 15:05:37;;;;;;;75.35;36.65;;;;;;;;;;4992270;28;20019;-80
2021/01/29 15:08:05;;;;;;;76.10;39.00;;;;;;;;;;5008924;28;20461;-75
2021/01/29 15:10:35;;;;;;;76.15;37.33;;;;;;;;;;4983230;28;20045;-73